Time;durP1;ratioP1;P1;durP2;ratioP2;P2;SDS_P1;SDS_P2;PMS_P1;PMS_P2;Temp;Humidity;BMP_temperature;BMP_pressure;BME280_temperature;BME280_humidity;BME280_pressure;Samples;Min_cycle;Max_cycle;Signal;HPM_P1;HPM_P2
2022/09/10 00:01:38;;;;;;;22.67;17.70;;;;;;;31.81;13.51;99982.81;5048936;28;20052;-83
2022/09/10 00:04:11;;;;;;;24.55;17.83;;;;;;;31.78;12.68;99979.53;5044812;28;20055;-83
2022/09/10 00:06:40;;;;;;;20.27;17.35;;;;;;;31.79;13.13;99981.22;5049016;28;20454;-85
2022/09/10 00:09:12;;;;;;;23.58;18.80;;;;;;;31.79;13.44;99979.38;5049800;28;20070;-80
2022/09/10 00:11:41;;;;;;;23.33;18.25;;;;;;;31.73;13.46;99977.16;5047975;28;20441;-79
2022/09/10 00:14:14;;;;;;;24.55;18.52;;;;;;;31.66;13.46;99970.56;5035100;28;20453;-84
2022/09/10 00:16:42;;;;;;;19.45;17.17;;;;;;;31.61;12.66;99967.31;5022039;28;20057;-82
2022/09/10 00:19:11;;;;;;;24.25;18.23;;;;;;;31.56;12.95;99969.47;5031620;28;20128;-88
2022/09/10 00:21:40;;;;;;;27.83;18.17;;;;;;;31.51;13.54;99961.78;5037472;28;20056;-88
2022/09/10 00:24:10;;;;;;;24.52;17.48;;;;;;;31.46;13.21;99969.28;5031029;28;20576;-85
2022/09/10 00:26:40;;;;;;;24.65;17.85;;;;;;;31.40;13.08;99959.81;5035950;28;20066;-84
2022/09/10 00:29:11;;;;;;;26.17;17.70;;;;;;;31.31;12.66;99966.69;5036900;28;20049;-84
2022/09/10 00:31:40;;;;;;;21.40;18.45;;;;;;;31.32;13.25;99962.19;5035167;28;20680;-86
2022/09/10 00:34:10;;;;;;;26.77;17.98;;;;;;;31.28;14.29;99961.53;5036480;28;20542;-86
2022/09/10 00:36:40;;;;;;;25.85;18.30;;;;;;;31.24;13.90;99964.53;5033306;28;20510;-85
2022/09/10 00:39:13;;;;;;;22.92;17.35;;;;;;;31.21;13.58;99959.41;5034773;28;20494;-83
2022/09/10 00:41:44;;;;;;;22.50;17.20;;;;;;;31.16;13.57;99956.22;5034201;28;20399;-83
2022/09/10 00:44:50;;;;;;;25.35;17.55;;;;;;;31.05;13.14;99951.59;5028913;28;20491;-85
2022/09/10 00:47:22;;;;;;;20.05;16.42;;;;;;;30.98;13.88;99951.16;5033977;28;20045;-84
2022/09/10 00:49:53;;;;;;;19.02;16.40;;;;;;;30.93;13.48;99947.09;5027562;28;20049;-82
2022/09/10 00:52:22;;;;;;;22.65;16.38;;;;;;;30.86;13.61;99958.19;5035026;28;20048;-85
2022/09/10 00:54:53;;;;;;;19.33;14.77;;;;;;;30.82;13.61;99955.81;5027094;28;20050;-80
2022/09/10 00:57:23;;;;;;;22.00;14.93;;;;;;;30.72;13.68;99944.91;5031500;28;20041;-78
2022/09/10 00:59:58;;;;;;;23.42;15.23;;;;;;;30.66;13.60;99948.81;5028816;28;20050;-87
2022/09/10 01:02:30;;;;;;;19.02;14.52;;;;;;;30.60;13.86;99956.38;5032015;28;20045;-79
2022/09/10 01:04:59;;;;;;;21.30;15.25;;;;;;;30.53;13.65;99947.91;5034189;28;20061;-84
2022/09/10 01:07:29;;;;;;;18.77;14.32;;;;;;;30.43;13.90;99950.34;5024803;28;20130;-80
2022/09/10 01:10:02;;;;;;;18.45;13.95;;;;;;;30.38;13.42;99940.94;5034513;28;20103;-84
2022/09/10 01:12:54;;;;;;;21.60;15.00;;;;;;;30.30;13.87;99935.25;5038732;28;20702;-82
2022/09/10 01:15:31;;;;;;;;;;;;;;;30.20;13.81;99929.63;5026773;28;20048;-82
2022/09/10 01:18:16;;;;;;;17.02;12.25;;;;;;;30.12;13.67;99921.25;5032123;28;19925;-81
2022/09/10 01:21:24;;;;;;;15.32;11.25;;;;;;;30.02;13.31;99918.34;5023236;28;20049;-83
2022/09/10 01:24:37;;;;;;;16.40;11.68;;;;;;;29.95;13.61;99922.38;5027502;28;20046;-85
2022/09/10 01:27:45;;;;;;;14.15;11.10;;;;;;;29.88;13.74;99918.38;5018440;28;20620;-84
2022/09/10 01:30:18;;;;;;;17.30;11.60;;;;;;;29.81;13.91;99923.25;5027086;28;20045;-87
2022/09/10 01:32:55;;;;;;;13.98;10.25;;;;;;;29.75;14.04;99921.81;5033078;28;20072;-84
2022/09/10 01:35:29;;;;;;;16.73;9.48;;;;;;;29.70;14.02;99923.94;5016614;28;20046;-85
2022/09/10 01:38:03;;;;;;;14.75;9.55;;;;;;;29.62;14.25;99928.88;5030428;28;20046;-83
2022/09/10 01:40:32;;;;;;;11.77;8.30;;;;;;;29.55;14.08;99917.75;5026834;28;20056;-85
2022/09/10 01:43:05;;;;;;;14.63;8.20;;;;;;;29.47;14.18;99924.50;5023409;28;20136;-83
2022/09/10 01:45:43;;;;;;;16.13;7.15;;;;;;;29.39;13.80;99928.50;5029025;28;20095;-85
2022/09/10 01:48:45;;;;;;;11.63;6.88;;;;;;;29.34;13.76;99919.91;5027368;28;20057;-84
2022/09/10 01:51:23;;;;;;;15.15;6.75;;;;;;;29.29;13.97;99923.81;5020785;28;20465;-83
2022/09/10 01:54:05;;;;;;;15.45;6.63;;;;;;;29.24;14.15;99924.09;5029218;28;20076;-82
2022/09/10 01:56:41;;;;;;;10.07;6.53;;;;;;;29.16;14.21;99915.72;5019856;28;20045;-86
2022/09/10 01:59:25;;;;;;;8.05;5.32;;;;;;;29.07;14.11;99924.22;5029753;28;20045;-84
2022/09/10 02:02:00;;;;;;;10.55;5.15;;;;;;;28.98;13.93;99921.19;5025332;28;20049;-86
2022/09/10 02:04:30;;;;;;;8.50;4.72;;;;;;;28.94;14.44;99925.00;5031648;28;20084;-87
2022/09/10 02:07:00;;;;;;;6.88;4.20;;;;;;;28.90;14.23;99927.94;5044843;28;20509;-87
2022/09/10 02:09:29;;;;;;;10.80;3.70;;;;;;;28.84;14.18;99926.50;5031221;28;20038;-84
2022/09/10 02:11:57;;;;;;;9.15;4.00;;;;;;;28.76;14.26;99924.28;5052088;28;20052;-82
2022/09/10 02:14:28;;;;;;;9.20;3.58;;;;;;;28.72;14.28;99924.56;5059568;28;20049;-81
2022/09/10 02:16:58;;;;;;;8.93;3.67;;;;;;;28.64;14.40;99924.16;5061700;28;20483;-85
2022/09/10 02:19:27;;;;;;;6.03;3.22;;;;;;;28.55;14.61;99931.72;5055631;28;20098;-82
2022/09/10 02:21:57;;;;;;;6.65;2.92;;;;;;;28.47;14.49;99928.63;5053154;28;20045;-83
2022/09/10 02:24:26;;;;;;;6.10;2.80;;;;;;;28.39;14.43;99934.38;5061983;28;20456;-89
2022/09/10 02:26:54;;;;;;;6.20;2.50;;;;;;;28.30;14.68;99926.09;5041456;28;20041;-86
2022/09/10 02:29:23;;;;;;;7.93;2.70;;;;;;;28.22;14.81;99929.16;5063412;28;20098;-84
2022/09/10 02:31:54;;;;;;;9.77;3.03;;;;;;;28.17;14.60;99937.41;5062698;28;20057;-85
2022/09/10 02:34:23;;;;;;;4.00;2.50;;;;;;;28.12;15.25;99927.97;5067894;28;20385;-88
2022/09/10 02:36:51;;;;;;;5.18;2.80;;;;;;;28.09;14.81;99936.16;5052840;28;20493;-87
2022/09/10 02:39:23;;;;;;;7.00;2.97;;;;;;;28.03;14.99;99933.81;5057574;28;20041;-87
2022/09/10 02:41:52;;;;;;;7.00;2.30;;;;;;;27.97;15.04;99935.03;5042937;28;20045;-83
2022/09/10 02:44:21;;;;;;;4.72;2.10;;;;;;;27.90;15.17;99944.28;5044457;28;20087;-86
2022/09/10 02:46:49;;;;;;;4.05;2.13;;;;;;;27.79;15.48;99943.03;5048376;28;20119;-86
2022/09/10 02:49:19;;;;;;;5.40;2.13;;;;;;;27.70;15.74;99948.88;5045241;28;20053;-83
2022/09/10 02:51:49;;;;;;;5.07;2.22;;;;;;;27.65;15.95;99944.72;5052592;28;20052;-86
2022/09/10 02:54:18;;;;;;;5.25;2.20;;;;;;;27.61;15.36;99943.19;5047109;28;20052;-85
2022/09/10 02:56:48;;;;;;;4.93;1.90;;;;;;;27.55;15.29;99947.03;5054520;28;20044;-82
2022/09/10 02:59:18;;;;;;;5.45;1.80;;;;;;;27.49;15.86;99942.06;5056369;28;20072;-81
2022/09/10 03:01:49;;;;;;;4.32;1.75;;;;;;;27.41;15.76;99946.91;5051738;28;20125;-82
2022/09/10 03:04:19;;;;;;;10.80;1.88;;;;;;;27.31;15.60;99941.25;5048143;28;20490;-83
2022/09/10 03:06:48;;;;;;;7.90;1.73;;;;;;;27.24;15.53;99948.66;5050994;28;20048;-81
2022/09/10 03:09:16;;;;;;;3.58;1.50;;;;;;;27.22;15.67;99950.53;5038298;28;20077;-83
2022/09/10 03:11:45;;;;;;;2.92;1.38;;;;;;;27.17;15.83;99949.91;5055101;27;20055;-81
2022/09/10 03:14:19;;;;;;;5.22;1.77;;;;;;;27.10;15.49;99948.50;5046380;28;20041;-81
2022/09/10 03:16:48;;;;;;;6.25;1.77;;;;;;;27.07;15.81;99953.97;5063751;28;20051;-85
2022/09/10 03:19:20;;;;;;;4.43;1.60;;;;;;;27.03;16.38;99952.38;5052699;28;20517;-87
2022/09/10 03:21:48;;;;;;;2.67;1.67;;;;;;;26.99;15.90;99956.16;5051676;28;20052;-82
2022/09/10 03:24:17;;;;;;;4.07;1.70;;;;;;;26.94;16.47;99954.59;5055153;28;20509;-79
2022/09/10 03:26:45;;;;;;;6.30;1.40;;;;;;;26.91;16.18;99959.19;5056909;28;20041;-78
2022/09/10 03:29:14;;;;;;;4.03;1.48;;;;;;;26.82;16.91;99960.50;5051839;28;20567;-76
2022/09/10 03:31:43;;;;;;;3.90;1.50;;;;;;;26.77;16.99;99962.56;5057136;28;20052;-76
2022/09/10 03:34:13;;;;;;;3.65;1.52;;;;;;;26.70;17.01;99966.44;5060172;28;20551;-79
2022/09/10 03:36:44;;;;;;;5.38;1.45;;;;;;;26.61;16.99;99964.25;5062541;28;20045;-78
2022/09/10 03:39:13;;;;;;;6.05;1.40;;;;;;;26.52;17.29;99953.13;5051572;28;20057;-87
2022/09/10 03:41:41;;;;;;;2.78;1.15;;;;;;;26.45;17.20;99957.00;5043812;28;20612;-79
2022/09/10 03:44:10;;;;;;;2.22;1.35;;;;;;;26.41;17.36;99954.59;5058644;28;20044;-81
2022/09/10 03:46:40;;;;;;;2.42;1.20;;;;;;;26.34;17.09;99961.97;5054662;28;20085;-83
2022/09/10 03:49:09;;;;;;;3.75;1.00;;;;;;;26.29;16.99;99977.25;5055515;28;20045;-81
2022/09/10 03:51:37;;;;;;;4.85;1.20;;;;;;;26.25;16.63;99975.69;5054358;28;20052;-82
2022/09/10 03:54:08;;;;;;;4.72;1.20;;;;;;;26.20;17.32;99977.69;5046237;28;20044;-79
2022/09/10 03:56:36;;;;;;;4.30;1.10;;;;;;;26.12;17.15;99981.56;5044732;28;20060;-82
2022/09/10 03:59:05;;;;;;;2.97;1.00;;;;;;;26.04;18.17;99974.91;5051509;28;20500;-84
2022/09/10 04:01:34;;;;;;;7.18;1.30;;;;;;;25.99;16.73;99977.78;5046263;28;20041;-85
2022/09/10 04:04:02;;;;;;;5.55;1.08;;;;;;;25.94;16.86;99971.84;5046045;28;20045;-85
2022/09/10 04:06:32;;;;;;;3.55;1.00;;;;;;;25.92;17.25;99973.69;5041404;28;20045;-82
2022/09/10 04:09:01;;;;;;;6.45;1.40;;;;;;;25.90;17.21;99967.59;5062610;28;20067;-82
2022/09/10 04:11:32;;;;;;;10.38;1.35;;;;;;;25.86;17.01;99974.81;5057608;28;20083;-81
2022/09/10 04:14:00;;;;;;;4.88;1.20;;;;;;;25.84;16.77;99975.84;5053011;28;20057;-84
2022/09/10 04:16:30;;;;;;;4.72;0.90;;;;;;;25.81;16.81;99978.59;5056824;28;20569;-85
2022/09/10 04:18:58;;;;;;;3.58;0.88;;;;;;;25.80;16.67;99976.91;5046498;28;20061;-87
2022/09/10 04:21:27;;;;;;;6.63;0.88;;;;;;;25.79;17.15;99989.25;5051866;28;20041;-86
2022/09/10 04:23:58;;;;;;;5.85;0.93;;;;;;;25.77;17.07;99992.91;5050996;28;20542;-83
2022/09/10 04:26:26;;;;;;;3.60;1.15;;;;;;;25.72;17.34;99995.78;5045602;28;20554;-84
2022/09/10 04:28:57;;;;;;;4.10;1.33;;;;;;;25.68;17.77;99997.72;5069049;28;20063;-86
2022/09/10 04:31:25;;;;;;;4.32;1.00;;;;;;;25.66;17.86;99996.06;5055874;28;20371;-84
2022/09/10 04:33:54;;;;;;;2.58;0.90;;;;;;;25.62;18.30;99998.00;5045618;28;20537;-83
2022/09/10 04:36:22;;;;;;;3.40;1.08;;;;;;;25.60;17.89;100005.13;5039550;28;20115;-81
2022/09/10 04:38:51;;;;;;;5.80;1.38;;;;;;;25.47;17.89;100004.84;5046439;28;20057;-85
2022/09/10 04:41:19;;;;;;;5.43;0.90;;;;;;;25.40;17.97;100008.66;5058907;28;20086;-82
2022/09/10 04:43:48;;;;;;;6.70;1.33;;;;;;;25.34;17.97;100008.94;5053076;28;20702;-84
2022/09/10 04:46:18;;;;;;;3.33;1.02;;;;;;;25.31;17.58;100010.84;5042381;28;20075;-82
2022/09/10 04:48:47;;;;;;;4.15;1.40;;;;;;;25.29;17.53;100006.50;5039719;28;20044;-83
2022/09/10 04:51:16;;;;;;;2.97;1.42;;;;;;;25.29;17.61;100008.28;5044828;28;20045;-82
2022/09/10 04:53:45;;;;;;;3.25;0.98;;;;;;;25.27;17.05;100003.06;5044254;28;20042;-85
2022/09/10 04:56:13;;;;;;;3.35;1.50;;;;;;;25.27;17.12;100002.19;5047331;28;20502;-86
2022/09/10 04:58:42;;;;;;;4.22;1.58;;;;;;;25.24;17.38;100002.31;5049305;28;20409;-83
2022/09/10 05:01:11;;;;;;;4.00;1.13;;;;;;;25.20;17.44;100003.41;5046635;28;20053;-87
2022/09/10 05:03:41;;;;;;;3.75;1.67;;;;;;;25.18;17.58;100008.75;5046563;28;20146;-83
2022/09/10 05:06:10;;;;;;;3.08;1.42;;;;;;;25.19;17.93;100004.31;5040309;28;20107;-86
2022/09/10 05:08:38;;;;;;;1.83;1.20;;;;;;;25.19;17.58;100010.47;5053804;28;20444;-84
2022/09/10 05:11:07;;;;;;;2.42;1.60;;;;;;;25.18;17.85;100006.09;5044629;28;20066;-82
2022/09/10 05:13:36;;;;;;;5.75;1.48;;;;;;;25.14;17.98;100012.41;5035444;28;20515;-83
2022/09/10 05:16:04;;;;;;;6.57;1.75;;;;;;;25.10;17.17;100005.53;5034879;28;20128;-84
2022/09/10 05:18:33;;;;;;;3.55;1.98;;;;;;;25.07;17.67;100005.66;5033622;28;20498;-83
2022/09/10 05:21:04;;;;;;;3.35;1.60;;;;;;;25.04;17.92;100006.66;5032199;28;20494;-88
2022/09/10 05:23:32;;;;;;;5.13;1.67;;;;;;;25.02;17.89;100012.94;5031571;28;20057;-82
2022/09/10 05:26:01;;;;;;;4.95;1.70;;;;;;;24.97;17.88;99999.03;5033629;28;20060;-84
2022/09/10 05:28:29;;;;;;;8.63;2.00;;;;;;;24.91;17.49;99997.50;5027917;28;20049;-82
2022/09/10 05:30:58;;;;;;;6.82;1.90;;;;;;;24.93;17.53;100005.41;5028619;28;20061;-85
2022/09/10 05:33:27;;;;;;;6.53;2.03;;;;;;;24.94;17.76;100002.66;5044118;28;20107;-84
2022/09/10 05:35:55;;;;;;;3.75;1.67;;;;;;;24.96;18.37;100005.25;5044476;28;20053;-84
2022/09/10 05:38:25;;;;;;;4.93;2.10;;;;;;;24.95;17.78;100009.69;5043844;28;20490;-87
2022/09/10 05:40:55;;;;;;;5.45;1.85;;;;;;;24.93;17.98;99998.31;5034153;28;20049;-80
2022/09/10 05:43:24;;;;;;;3.47;2.08;;;;;;;24.88;18.18;99992.34;5030822;28;20065;-85
2022/09/10 05:45:52;;;;;;;4.63;2.10;;;;;;;24.81;18.77;99994.38;5040198;28;20497;-82
2022/09/10 05:48:21;;;;;;;4.93;2.00;;;;;;;24.73;18.36;99985.91;5030716;28;20212;-85
2022/09/10 05:50:50;;;;;;;6.90;2.08;;;;;;;24.65;19.19;99994.16;5031124;28;20045;-82
2022/09/10 05:53:18;;;;;;;4.75;2.15;;;;;;;24.54;19.14;99996.38;5036035;28;20052;-87
2022/09/10 05:55:49;;;;;;;4.57;2.15;;;;;;;24.46;18.73;99988.72;5037891;28;20049;-84
2022/09/10 05:58:17;;;;;;;7.32;2.10;;;;;;;24.38;19.59;100001.38;5035202;28;20046;-82
2022/09/10 06:00:46;;;;;;;2.72;2.20;;;;;;;24.30;19.69;99987.59;5037256;28;20103;-81
2022/09/10 06:03:14;;;;;;;5.68;2.60;;;;;;;24.21;19.49;100001.16;5035613;28;20124;-86
2022/09/10 06:05:50;;;;;;;7.95;2.30;;;;;;;24.13;20.46;100005.91;5034339;28;20045;-83
2022/09/10 06:08:19;;;;;;;8.98;2.70;;;;;;;24.04;19.82;100002.69;5033546;28;20076;-84
2022/09/10 06:10:57;;;;;;;7.65;2.42;;;;;;;23.99;20.25;100020.50;5034517;28;20055;-86
2022/09/10 06:13:26;;;;;;;4.82;2.80;;;;;;;23.94;20.04;100017.19;5040345;28;20048;-82
2022/09/10 06:15:55;;;;;;;4.32;2.60;;;;;;;23.87;19.86;100018.34;5061841;28;20055;-81
2022/09/10 06:18:26;;;;;;;3.55;2.35;;;;;;;23.83;20.08;100017.56;5036753;28;20056;-80
2022/09/10 06:21:04;;;;;;;7.40;3.13;;;;;;;23.81;20.70;100021.19;5051550;28;20102;-80
2022/09/10 06:23:32;;;;;;;7.97;2.72;;;;;;;23.77;20.82;100023.06;5050441;28;20282;-81
2022/09/10 06:26:04;;;;;;;8.98;2.97;;;;;;;23.75;20.87;100016.13;5045686;28;20379;-82
2022/09/10 06:28:33;;;;;;;5.00;2.90;;;;;;;23.71;20.92;100031.22;5045892;28;20045;-83
2022/09/10 06:31:03;;;;;;;4.28;3.03;;;;;;;23.68;20.17;100015.44;5058657;28;20052;-80
2022/09/10 06:33:32;;;;;;;4.90;2.80;;;;;;;23.71;20.01;100017.13;5043518;28;20050;-80
2022/09/10 06:36:02;;;;;;;4.72;2.58;;;;;;;23.73;20.57;100017.94;5056982;28;20478;-80
2022/09/10 06:38:32;;;;;;;5.97;3.38;;;;;;;23.75;19.82;100006.41;5060746;28;20052;-85
2022/09/10 06:41:04;;;;;;;9.32;2.85;;;;;;;23.78;20.11;100010.75;5059478;28;20048;-83
2022/09/10 06:43:35;;;;;;;3.70;2.78;;;;;;;23.76;20.46;100008.16;5056634;28;20497;-79
2022/09/10 06:46:08;;;;;;;6.15;3.00;;;;;;;23.73;20.21;100008.25;5048454;28;20079;-80
2022/09/10 06:48:40;;;;;;;6.10;3.60;;;;;;;23.73;20.76;100002.06;5052913;28;20110;-80
2022/09/10 06:51:09;;;;;;;8.43;3.65;;;;;;;23.71;20.53;100007.44;5051791;28;20066;-80
2022/09/10 06:53:39;;;;;;;7.85;3.60;;;;;;;23.70;20.02;99996.91;5052258;28;20048;-80
2022/09/10 06:56:12;;;;;;;5.28;3.13;;;;;;;23.69;20.25;99992.56;5047835;28;20057;-81
2022/09/10 06:58:40;;;;;;;3.92;3.15;;;;;;;23.65;20.49;99993.59;5047876;28;20053;-79
2022/09/10 07:01:10;;;;;;;9.65;3.58;;;;;;;23.58;20.23;99996.44;5049250;28;20064;-79
2022/09/10 07:03:39;;;;;;;4.20;2.88;;;;;;;23.54;20.24;100002.75;5050983;28;20132;-79
2022/09/10 07:06:09;;;;;;;10.15;3.63;;;;;;;23.48;20.52;100003.00;5048053;28;20403;-81
2022/09/10 07:08:40;;;;;;;7.03;3.85;;;;;;;23.43;20.35;99999.63;5063955;28;20088;-79
2022/09/10 07:11:14;;;;;;;8.90;3.92;;;;;;;23.39;20.47;100005.97;5056969;28;20052;-79
2022/09/10 07:13:43;;;;;;;6.80;4.20;;;;;;;23.37;20.21;100013.06;5051077;27;20052;-79
2022/09/10 07:16:12;;;;;;;5.20;4.03;;;;;;;23.35;20.71;100010.47;5045281;28;20044;-82
2022/09/10 07:18:40;;;;;;;5.50;4.28;;;;;;;23.32;20.42;100007.06;5049911;28;20431;-80
2022/09/10 07:21:10;;;;;;;8.32;4.10;;;;;;;23.31;20.19;100013.28;5050250;28;20048;-79
2022/09/10 07:23:39;;;;;;;7.75;3.33;;;;;;;23.29;20.12;99999.25;5056901;28;20092;-77
2022/09/10 07:26:11;;;;;;;7.78;4.25;;;;;;;23.27;20.45;100006.38;5040216;28;20124;-78
2022/09/10 07:28:41;;;;;;;12.65;4.40;;;;;;;23.23;20.40;100005.63;5058332;28;20045;-80
2022/09/10 07:31:17;;;;;;;8.35;4.60;;;;;;;23.20;21.04;99997.81;5058263;28;20095;-79
2022/09/10 07:33:47;;;;;;;12.85;5.53;;;;;;;23.16;21.16;100006.75;5046372;28;20060;-79
2022/09/10 07:36:16;;;;;;;10.93;4.60;;;;;;;23.12;21.18;100006.00;5066441;28;20075;-79
2022/09/10 07:38:45;;;;;;;6.90;4.93;;;;;;;23.09;21.35;99998.19;5058829;28;20045;-81
2022/09/10 07:41:15;;;;;;;9.13;4.57;;;;;;;23.05;21.44;100015.03;5047266;28;20033;-78
2022/09/10 07:43:45;;;;;;;7.22;4.63;;;;;;;23.02;21.43;100015.16;5054765;28;20045;-81
2022/09/10 07:46:18;;;;;;;17.23;5.25;;;;;;;23.01;21.11;100023.97;5056583;28;20045;-79
2022/09/10 07:48:47;;;;;;;8.50;5.28;;;;;;;22.97;20.87;100022.31;5047738;28;20048;-78
2022/09/10 07:51:18;;;;;;;7.80;4.95;;;;;;;22.98;20.70;100024.03;5054562;28;20106;-77
2022/09/10 07:53:54;;;;;;;10.65;5.43;;;;;;;22.97;20.74;100017.03;5044210;28;20544;-82
2022/09/10 07:56:25;;;;;;;13.23;5.68;;;;;;;23.00;20.57;100022.25;5047814;28;20040;-78
2022/09/10 07:58:56;;;;;;;9.32;5.53;;;;;;;23.00;21.18;100027.53;5044416;28;20501;-78
2022/09/10 08:01:24;;;;;;;13.25;6.22;;;;;;;23.04;20.96;100030.91;5064747;28;20074;-79
2022/09/10 08:03:57;;;;;;;8.18;5.50;;;;;;;23.00;21.16;100027.53;5051163;28;20564;-83
2022/09/10 08:06:26;;;;;;;10.98;5.70;;;;;;;23.06;20.82;100032.56;5052845;28;20090;-81
2022/09/10 08:08:55;;;;;;;10.23;5.60;;;;;;;23.09;21.64;100035.13;5047845;28;20056;-82
2022/09/10 08:11:25;;;;;;;11.40;5.43;;;;;;;23.08;21.75;100025.47;5056985;28;20041;-80
2022/09/10 08:13:55;;;;;;;7.68;6.00;;;;;;;23.07;20.88;100028.19;5051176;27;20136;-80
2022/09/10 08:16:25;;;;;;;14.52;5.80;;;;;;;23.07;21.13;100023.75;5049279;28;20059;-79
2022/09/10 08:18:56;;;;;;;9.30;6.07;;;;;;;23.07;21.35;100026.41;5055798;28;20122;-81
2022/09/10 08:21:25;;;;;;;10.02;5.90;;;;;;;23.02;21.37;100020.44;5061411;28;20048;-79
2022/09/10 08:23:55;;;;;;;8.02;5.80;;;;;;;22.95;21.44;100009.19;5042213;28;21092;-81
2022/09/10 08:26:26;;;;;;;7.55;5.05;;;;;;;22.95;22.54;100025.00;5053151;28;20044;-77
2022/09/10 08:28:56;;;;;;;9.57;5.90;;;;;;;22.91;22.78;100022.53;5045147;28;20063;-78
2022/09/10 08:31:25;;;;;;;9.57;5.80;;;;;;;22.83;22.64;100027.19;5056188;28;20291;-78
2022/09/10 08:33:55;;;;;;;10.27;6.40;;;;;;;22.78;22.16;100022.91;5042987;28;20547;-77
2022/09/10 08:36:24;;;;;;;7.85;5.95;;;;;;;22.69;22.99;100006.53;5063583;28;20523;-79
2022/09/10 08:38:54;;;;;;;7.88;6.10;;;;;;;22.66;23.13;100014.56;5064125;28;20379;-81
2022/09/10 08:41:42;;;;;;;9.13;6.30;;;;;;;22.60;23.30;100018.22;5059371;28;20088;-78
2022/09/10 08:44:16;;;;;;;9.80;6.25;;;;;;;22.55;23.29;100014.88;5055581;28;20049;-78
2022/09/10 08:46:50;;;;;;;6.68;5.40;;;;;;;22.53;22.61;100016.69;5045669;28;20065;-78
2022/09/10 08:49:25;;;;;;;7.97;6.13;;;;;;;22.51;22.79;100007.97;5040998;28;20045;-80
2022/09/10 08:51:59;;;;;;;7.00;5.47;;;;;;;22.51;21.99;100013.25;5047332;28;20046;-79
2022/09/10 08:54:36;;;;;;;8.73;6.18;;;;;;;22.46;22.76;100009.91;5051166;28;20198;-77
2022/09/10 08:57:14;;;;;;;10.00;6.80;;;;;;;22.49;22.48;100015.06;5048174;28;20049;-77
2022/09/10 08:59:46;;;;;;;8.90;6.18;;;;;;;22.51;22.55;100007.97;5059089;28;20060;-77
2022/09/10 09:02:21;;;;;;;11.27;6.50;;;;;;;22.54;22.39;100007.88;5055218;28;20487;-78
2022/09/10 09:04:56;;;;;;;9.18;6.22;;;;;;;22.60;22.18;100010.31;5056883;28;20052;-79
2022/09/10 09:07:25;;;;;;;12.90;5.50;;;;;;;22.61;21.81;100000.63;5055197;28;20124;-77
2022/09/10 09:09:53;;;;;;;8.65;5.43;;;;;;;22.63;21.38;99996.16;5053517;28;20106;-78
2022/09/10 09:12:34;;;;;;;13.63;5.93;;;;;;;22.64;21.72;100003.19;5051440;28;20052;-78
2022/09/10 09:15:11;;;;;;;9.02;5.82;;;;;;;22.63;21.18;99999.69;5031562;28;20046;-77
2022/09/10 09:17:55;;;;;;;9.50;5.45;;;;;;;22.60;21.81;99997.13;5031254;28;20058;-77
2022/09/10 09:20:35;;;;;;;7.90;5.35;;;;;;;22.61;21.43;100003.25;5034568;28;20151;-77
2022/09/10 09:23:12;;;;;;;14.32;5.63;;;;;;;22.59;22.20;100001.56;5037781;28;20053;-81
2022/09/10 09:25:50;;;;;;;7.53;5.35;;;;;;;22.56;22.14;100001.66;5039213;28;20050;-77
2022/09/10 09:28:30;;;;;;;11.02;5.15;;;;;;;22.52;21.90;100010.56;5030906;28;20490;-77
2022/09/10 09:31:08;;;;;;;8.57;5.75;;;;;;;22.47;21.67;100011.59;5031967;28;20053;-76
2022/09/10 09:33:38;;;;;;;8.32;5.22;;;;;;;22.48;21.64;100000.16;5023369;28;20053;-78
2022/09/10 09:36:08;;;;;;;6.95;5.38;;;;;;;22.45;21.55;100002.88;5039499;28;20049;-77
2022/09/10 09:38:40;;;;;;;11.90;5.70;;;;;;;22.44;21.88;100006.44;5043720;28;20057;-77
2022/09/10 09:41:16;;;;;;;8.73;5.60;;;;;;;22.44;21.09;100017.00;5039206;28;20054;-77
2022/09/10 09:43:54;;;;;;;7.95;5.20;;;;;;;22.47;21.23;100012.50;5031339;28;20506;-79
2022/09/10 09:46:24;;;;;;;9.60;5.25;;;;;;;22.46;21.20;100004.63;5037370;28;20078;-77
2022/09/10 09:49:03;;;;;;;7.75;5.18;;;;;;;22.52;21.11;100015.00;5034616;28;20053;-79
2022/09/10 09:51:34;;;;;;;7.45;5.13;;;;;;;22.56;21.12;100006.03;5034153;28;20404;-77
2022/09/10 09:54:08;;;;;;;9.23;5.63;;;;;;;22.58;20.92;100009.50;5030535;28;20124;-78
2022/09/10 09:56:41;;;;;;;10.25;5.05;;;;;;;22.59;20.91;100011.25;5033916;28;20049;-79
2022/09/10 09:59:26;;;;;;;13.55;5.45;;;;;;;22.61;20.92;100009.44;5031024;28;20045;-77
2022/09/10 10:01:58;;;;;;;8.70;5.75;;;;;;;22.61;21.88;100006.78;5029223;28;20132;-78
2022/09/10 10:04:32;;;;;;;7.88;5.25;;;;;;;22.60;21.06;100007.69;5028520;28;20045;-80
2022/09/10 10:07:03;;;;;;;7.90;5.10;;;;;;;22.58;21.83;100012.13;5044310;28;20045;-77
2022/09/10 10:09:33;;;;;;;11.02;4.85;;;;;;;22.54;21.57;100014.03;5029299;28;20045;-81
2022/09/10 10:12:04;;;;;;;8.73;5.20;;;;;;;22.52;22.05;100009.72;5030025;28;20050;-77
2022/09/10 10:14:50;;;;;;;8.25;5.20;;;;;;;22.48;22.10;100008.94;5061510;28;20188;-77
2022/09/10 10:17:37;;;;;;;9.02;5.18;;;;;;;22.47;21.13;100014.25;5042697;28;20081;-76
2022/09/10 10:20:11;;;;;;;11.48;5.10;;;;;;;22.47;21.51;100006.34;5049505;28;20555;-77
2022/09/10 10:22:41;;;;;;;8.27;4.90;;;;;;;22.47;21.73;100023.03;5040405;28;20057;-78
2022/09/10 10:25:35;;;;;;;7.53;5.00;;;;;;;22.45;22.54;100016.94;5046988;28;20087;-78
2022/09/10 10:28:06;;;;;;;10.23;5.93;;;;;;;22.43;22.05;100015.28;5039608;28;20055;-81
2022/09/10 10:30:36;;;;;;;12.35;5.53;;;;;;;22.40;23.18;100020.63;5045856;28;20495;-79
2022/09/10 10:33:05;;;;;;;8.57;4.90;;;;;;;22.35;23.77;100019.00;5054257;28;20051;-78
2022/09/10 10:35:40;;;;;;;7.53;4.90;;;;;;;22.29;23.50;100003.38;5050176;28;20049;-79
2022/09/10 10:38:32;;;;;;;12.02;5.53;;;;;;;22.32;23.89;100016.47;5048283;28;20135;-77
2022/09/10 10:41:40;;;;;;;14.60;6.20;;;;;;;22.32;22.67;100018.25;5040159;28;20083;-77
2022/09/10 10:44:48;;;;;;;8.80;4.88;;;;;;;22.27;23.05;100014.88;5048045;28;20041;-77
2022/09/10 10:47:32;;;;;;;6.10;4.95;;;;;;;22.32;23.14;100028.78;5047210;28;20045;-77
2022/09/10 10:50:09;;;;;;;8.57;4.93;;;;;;;22.30;22.85;100015.63;5048198;28;20044;-79
2022/09/10 10:52:47;;;;;;;11.57;5.15;;;;;;;22.29;23.00;100016.56;5051351;28;20089;-77
2022/09/10 10:55:23;;;;;;;10.73;5.28;;;;;;;22.35;23.08;100026.91;5044482;28;20041;-78
2022/09/10 10:58:11;;;;;;;11.60;5.15;;;;;;;22.38;22.45;100031.25;5048529;28;20044;-78
2022/09/10 11:00:48;;;;;;;10.05;5.70;;;;;;;22.40;22.71;100025.91;5034021;28;20053;-78
2022/09/10 11:03:25;;;;;;;8.52;5.55;;;;;;;22.41;22.78;100022.38;5059160;28;20044;-78
2022/09/10 11:06:01;;;;;;;7.30;5.55;;;;;;;22.41;22.90;100022.38;5059478;28;20041;-78
2022/09/10 11:08:35;;;;;;;8.75;5.50;;;;;;;22.41;22.94;100025.88;5048634;28;20052;-80
2022/09/10 11:11:10;;;;;;;10.13;5.50;;;;;;;22.41;23.26;100023.22;5056419;28;20040;-80
2022/09/10 11:13:45;;;;;;;11.68;5.63;;;;;;;22.38;23.30;100018.91;5069484;27;20052;-77
2022/09/10 11:16:18;;;;;;;7.80;4.88;;;;;;;22.37;23.10;100019.81;5055512;28;20041;-81
2022/09/10 11:18:54;;;;;;;8.95;5.65;;;;;;;22.35;23.30;100015.50;5064798;28;20104;-80
2022/09/10 11:21:30;;;;;;;8.80;5.38;;;;;;;22.36;22.95;100011.97;5053621;28;20101;-78
2022/09/10 11:24:04;;;;;;;11.88;5.32;;;;;;;22.36;23.32;100010.19;5053613;28;20048;-79
2022/09/10 11:26:40;;;;;;;15.13;5.05;;;;;;;22.37;22.89;100017.16;5048853;28;20054;-79
2022/09/10 11:29:24;;;;;;;6.75;5.35;;;;;;;22.40;22.95;100021.47;5049221;28;20081;-78
2022/09/10 11:32:05;;;;;;;8.63;5.47;;;;;;;22.40;23.56;100026.75;5040997;28;20131;-79
2022/09/10 11:34:43;;;;;;;11.70;5.60;;;;;;;22.36;23.68;100015.47;5045782;28;20052;-77
2022/09/10 11:37:17;;;;;;;7.88;5.25;;;;;;;22.29;23.27;100006.03;5048669;28;20049;-77
2022/09/10 11:39:49;;;;;;;6.30;5.22;;;;;;;22.31;23.65;100016.50;5044931;28;20045;-78
2022/09/10 11:42:24;;;;;;;7.78;5.55;;;;;;;22.28;23.81;100017.44;5039962;28;20057;-79
2022/09/10 11:45:00;;;;;;;6.65;5.38;;;;;;;22.25;23.74;100017.56;5050067;28;20045;-78
2022/09/10 11:47:33;;;;;;;11.63;6.00;;;;;;;22.20;23.80;100024.72;5046153;28;20041;-77
2022/09/10 11:50:09;;;;;;;8.07;5.75;;;;;;;22.15;24.27;100021.34;5038792;28;20049;-76
2022/09/10 11:52:39;;;;;;;10.63;5.97;;;;;;;22.11;23.57;100014.44;5065220;28;20072;-78